Terminal Aerodrome Forecast
Issued by NWS North Platte, NE

Home | Current Version | Previous Version | Graphics & Text | Print | Product List | Glossary On
Versions: 1 2 3 4 5 6 7 8 9 10 11 12 13 14 15 16 17 18 19 20
739
FTUS43 KLBF 241720
TAFVTN
TAF
KVTN 241720Z 2418/2518 20018G26KT P6SM FEW150
     FM242300 20014G20KT P6SM VCTS SCT150CB
     FM250400 18010KT P6SM FEW200 WS020/20040KT
     FM251500 21012G20KT P6SM SCT150=

USA.gov is the U.S. government's official web portal to all federal, state and local government web resources and services.